sensor_id;sensor_type;location;lat;lon;timestamp;pressure;altitude;pressure_sealevel;temperature;humidity
61337;BME280;47212;41.326;2.104;2023-03-31T00:03:07;101610.53;;;15.10;79.98
61337;BME280;47212;41.326;2.104;2023-03-31T00:08:14;101605.06;;;15.10;79.96
61337;BME280;47212;41.326;2.104;2023-03-31T00:13:17;101611.63;;;15.09;80.00
61337;BME280;47212;41.326;2.104;2023-03-31T00:18:19;101601.75;;;15.08;82.80
61337;BME280;47212;41.326;2.104;2023-03-31T00:23:21;101588.59;;;15.05;80.92
61337;BME280;47212;41.326;2.104;2023-03-31T00:28:28;101587.50;;;15.06;80.97
61337;BME280;47212;41.326;2.104;2023-03-31T00:33:30;101594.09;;;15.05;81.35
61337;BME280;47212;41.326;2.104;2023-03-31T00:38:33;101584.22;;;15.04;81.22
61337;BME280;47212;41.326;2.104;2023-03-31T00:43:37;101583.38;;;15.04;81.65
61337;BME280;47212;41.326;2.104;2023-03-31T00:48:50;101568.84;;;15.03;82.17
61337;BME280;47212;41.326;2.104;2023-03-31T00:54:04;101558.69;;;14.98;82.12
61337;BME280;47212;41.326;2.104;2023-03-31T00:59:43;101560.63;;;14.98;82.54
61337;BME280;47212;41.326;2.104;2023-03-31T01:05:41;101541.97;;;14.95;82.50
61337;BME280;47212;41.326;2.104;2023-03-31T01:10:56;101546.63;;;14.94;82.48
61337;BME280;47212;41.326;2.104;2023-03-31T01:45:15;101495.09;;;14.86;83.85
61337;BME280;47212;41.326;2.104;2023-03-31T01:51:01;101496.72;;;14.87;83.28
61337;BME280;47212;41.326;2.104;2023-03-31T02:01:37;101467.41;;;14.88;82.84
61337;BME280;47212;41.326;2.104;2023-03-31T02:07:06;101459.19;;;14.88;83.04
61337;BME280;47212;41.326;2.104;2023-03-31T02:12:18;101461.94;;;14.88;82.67
61337;BME280;47212;41.326;2.104;2023-03-31T02:17:31;101467.41;;;14.83;81.74
61337;BME280;47212;41.326;2.104;2023-03-31T02:22:50;101445.97;;;14.70;79.15
61337;BME280;47212;41.326;2.104;2023-03-31T02:28:11;101459.66;;;14.54;78.71
61337;BME280;47212;41.326;2.104;2023-03-31T02:33:19;101440.47;;;14.44;79.05
61337;BME280;47212;41.326;2.104;2023-03-31T02:38:26;101422.34;;;14.38;78.95
61337;BME280;47212;41.326;2.104;2023-03-31T02:43:45;101417.69;;;14.33;79.21
61337;BME280;47212;41.326;2.104;2023-03-31T02:48:58;101401.53;;;14.32;79.26
61337;BME280;47212;41.326;2.104;2023-03-31T02:54:25;101400.44;;;14.28;79.26
61337;BME280;47212;41.326;2.104;2023-03-31T03:05:34;101364.28;;;14.21;79.82
61337;BME280;47212;41.326;2.104;2023-03-31T03:11:11;101371.38;;;14.17;79.99
61337;BME280;47212;41.326;2.104;2023-03-31T03:16:23;101393.81;;;14.14;80.15
61337;BME280;47212;41.326;2.104;2023-03-31T03:21:34;101407.25;;;14.15;80.39
61337;BME280;47212;41.326;2.104;2023-03-31T03:26:45;101399.59;;;14.17;80.58
61337;BME280;47212;41.326;2.104;2023-03-31T03:31:48;101387.28;;;14.20;81.95
61337;BME280;47212;41.326;2.104;2023-03-31T03:37:10;101386.72;;;14.23;80.47
61337;BME280;47212;41.326;2.104;2023-03-31T03:42:16;101405.38;;;14.31;80.26
61337;BME280;47212;41.326;2.104;2023-03-31T03:47:26;101380.16;;;14.34;80.37
61337;BME280;47212;41.326;2.104;2023-03-31T03:52:34;101385.94;;;14.38;80.39
61337;BME280;47212;41.326;2.104;2023-03-31T03:57:36;101373.88;;;14.39;80.19
61337;BME280;47212;41.326;2.104;2023-03-31T04:02:40;101370.31;;;14.38;80.56
61337;BME280;47212;41.326;2.104;2023-03-31T04:07:49;101365.66;;;14.39;80.38
61337;BME280;47212;41.326;2.104;2023-03-31T04:12:54;101360.47;;;14.37;80.52
61337;BME280;47212;41.326;2.104;2023-03-31T04:17:56;101346.22;;;14.35;80.78
61337;BME280;47212;41.326;2.104;2023-03-31T04:22:59;101331.16;;;14.32;80.59
61337;BME280;47212;41.326;2.104;2023-03-31T04:28:03;101320.75;;;14.29;80.73
61337;BME280;47212;41.326;2.104;2023-03-31T04:33:07;101353.59;;;14.29;80.74
61337;BME280;47212;41.326;2.104;2023-03-31T04:38:10;101351.69;;;14.30;80.92
61337;BME280;47212;41.326;2.104;2023-03-31T04:43:20;101347.56;;;14.32;80.76
61337;BME280;47212;41.326;2.104;2023-03-31T04:48:33;101350.59;;;14.31;81.02
61337;BME280;47212;41.326;2.104;2023-03-31T04:53:38;101357.72;;;14.32;80.88
61337;BME280;47212;41.326;2.104;2023-03-31T04:58:47;101357.72;;;14.32;80.46
61337;BME280;47212;41.326;2.104;2023-03-31T05:03:55;101359.34;;;14.33;80.43
61337;BME280;47212;41.326;2.104;2023-03-31T05:09:02;101343.75;;;14.33;80.04
61337;BME280;47212;41.326;2.104;2023-03-31T05:14:06;101357.44;;;14.33;80.20
61337;BME280;47212;41.326;2.104;2023-03-31T05:19:15;101357.44;;;14.33;80.18
61337;BME280;47212;41.326;2.104;2023-03-31T05:24:33;101351.13;;;14.33;80.57
61337;BME280;47212;41.326;2.104;2023-03-31T05:29:42;101351.69;;;14.35;80.29
61337;BME280;47212;41.326;2.104;2023-03-31T05:35:01;101348.13;;;14.40;80.76
61337;BME280;47212;41.326;2.104;2023-03-31T05:40:06;101356.38;;;14.45;81.66
61337;BME280;47212;41.326;2.104;2023-03-31T05:45:26;101351.19;;;14.48;81.76
61337;BME280;47212;41.326;2.104;2023-03-31T05:50:55;101372.28;;;14.53;82.02
61337;BME280;47212;41.326;2.104;2023-03-31T05:56:04;101370.34;;;14.53;82.00
61337;BME280;47212;41.326;2.104;2023-03-31T06:01:18;101392.00;;;14.60;81.72
61337;BME280;47212;41.326;2.104;2023-03-31T06:06:38;101389.00;;;14.66;81.85
61337;BME280;47212;41.326;2.104;2023-03-31T06:11:42;101390.34;;;14.69;81.81
61337;BME280;47212;41.326;2.104;2023-03-31T06:16:54;101382.16;;;14.74;81.31
61337;BME280;47212;41.326;2.104;2023-03-31T06:22:25;101367.09;;;14.82;80.99
61337;BME280;47212;41.326;2.104;2023-03-31T06:27:27;101384.34;;;14.92;79.89
61337;BME280;47212;41.326;2.104;2023-03-31T06:32:37;101390.63;;;15.03;79.13
61337;BME280;47212;41.326;2.104;2023-03-31T06:37:50;101400.75;;;15.18;78.52
61337;BME280;47212;41.326;2.104;2023-03-31T06:42:57;101402.09;;;15.30;77.88
61337;BME280;47212;41.326;2.104;2023-03-31T06:48:02;101388.34;;;15.46;77.34
61337;BME280;47212;41.326;2.104;2023-03-31T06:53:12;101378.19;;;15.62;75.29
61337;BME280;47212;41.326;2.104;2023-03-31T06:58:18;101387.72;;;15.79;73.18
61337;BME280;47212;41.326;2.104;2023-03-31T07:03:39;101390.38;;;16.00;70.67
61337;BME280;47212;41.326;2.104;2023-03-31T07:08:44;101399.84;;;16.22;70.35
61337;BME280;47212;41.326;2.104;2023-03-31T07:13:47;101409.34;;;16.40;66.08
61337;BME280;47212;41.326;2.104;2023-03-31T07:19:06;101398.25;;;16.61;68.20
61337;BME280;47212;41.326;2.104;2023-03-31T07:24:14;101400.94;;;16.71;67.90
61337;BME280;47212;41.326;2.104;2023-03-31T07:29:23;101410.22;;;16.80;68.42
61337;BME280;47212;41.326;2.104;2023-03-31T07:34:27;101411.75;;;16.91;67.66
61337;BME280;47212;41.326;2.104;2023-03-31T07:39:41;101389.97;;;17.00;66.77
61337;BME280;47212;41.326;2.104;2023-03-31T07:44:45;101373.25;;;17.20;64.99
61337;BME280;47212;41.326;2.104;2023-03-31T07:49:58;101388.81;;;17.35;63.75
61337;BME280;47212;41.326;2.104;2023-03-31T07:55:04;101398.38;;;17.66;61.14
61337;BME280;47212;41.326;2.104;2023-03-31T08:00:09;101403.81;;;18.14;61.01
61337;BME280;47212;41.326;2.104;2023-03-31T08:05:22;101408.97;;;18.58;61.16
61337;BME280;47212;41.326;2.104;2023-03-31T08:10:35;101401.13;;;19.17;59.03
61337;BME280;47212;41.326;2.104;2023-03-31T08:15:55;101423.19;;;19.63;57.89
61337;BME280;47212;41.326;2.104;2023-03-31T08:21:07;101425.84;;;20.09;55.66
61337;BME280;47212;41.326;2.104;2023-03-31T08:26:16;101417.59;;;20.31;54.55
61337;BME280;47212;41.326;2.104;2023-03-31T08:31:21;101417.84;;;20.57;53.94
61337;BME280;47212;41.326;2.104;2023-03-31T08:36:55;101421.19;;;20.68;53.09
61337;BME280;47212;41.326;2.104;2023-03-31T08:42:20;101423.16;;;20.90;51.25
61337;BME280;47212;41.326;2.104;2023-03-31T08:47:31;101424.16;;;21.47;49.63
61337;BME280;47212;41.326;2.104;2023-03-31T08:53:07;101427.00;;;22.04;42.15
61337;BME280;47212;41.326;2.104;2023-03-31T08:58:27;101435.91;;;22.58;42.90
61337;BME280;47212;41.326;2.104;2023-03-31T09:08:57;101433.88;;;23.19;39.77
61337;BME280;47212;41.326;2.104;2023-03-31T09:19:54;101446.31;;;23.77;37.22
61337;BME280;47212;41.326;2.104;2023-03-31T09:25:09;101419.84;;;24.00;39.14
61337;BME280;47212;41.326;2.104;2023-03-31T09:30:38;101429.13;;;24.04;35.28
61337;BME280;47212;41.326;2.104;2023-03-31T09:36:00;101440.53;;;24.11;34.63
61337;BME280;47212;41.326;2.104;2023-03-31T09:41:53;101438.59;;;24.41;36.74
61337;BME280;47212;41.326;2.104;2023-03-31T09:57:38;101433.13;;;24.87;35.39
61337;BME280;47212;41.326;2.104;2023-03-31T10:02:56;101444.81;;;25.01;32.97
61337;BME280;47212;41.326;2.104;2023-03-31T10:08:13;101442.06;;;25.13;35.45
61337;BME280;47212;41.326;2.104;2023-03-31T10:13:23;101435.16;;;25.31;34.04
61337;BME280;47212;41.326;2.104;2023-03-31T10:18:38;101424.50;;;25.46;31.78
61337;BME280;47212;41.326;2.104;2023-03-31T10:23:46;101421.25;;;25.44;34.00
61337;BME280;47212;41.326;2.104;2023-03-31T10:28:50;101411.03;;;25.35;34.91
61337;BME280;47212;41.326;2.104;2023-03-31T10:33:55;101397.97;;;25.15;34.10
61337;BME280;47212;41.326;2.104;2023-03-31T10:39:05;101397.47;;;25.01;36.01
61337;BME280;47212;41.326;2.104;2023-03-31T10:44:37;101394.72;;;24.92;32.31
61337;BME280;47212;41.326;2.104;2023-03-31T10:49:42;101413.72;;;25.11;34.16
61337;BME280;47212;41.326;2.104;2023-03-31T10:54:50;101397.72;;;25.08;31.53
61337;BME280;47212;41.326;2.104;2023-03-31T11:05:55;101403.81;;;25.34;31.36
61337;BME280;47212;41.326;2.104;2023-03-31T11:16:24;101380.28;;;24.99;32.58
61337;BME280;47212;41.326;2.104;2023-03-31T11:32:41;101370.06;;;24.37;32.81
61337;BME280;47212;41.326;2.104;2023-03-31T11:42:56;101394.69;;;23.97;41.86
61337;BME280;47212;41.326;2.104;2023-03-31T11:48:42;101385.69;;;23.15;48.71
61337;BME280;47212;41.326;2.104;2023-03-31T11:53:57;101377.59;;;22.41;51.42
61337;BME280;47212;41.326;2.104;2023-03-31T11:59:19;101396.81;;;21.54;52.59
61337;BME280;47212;41.326;2.104;2023-03-31T12:04:41;101378.44;;;20.96;56.54
61337;BME280;47212;41.326;2.104;2023-03-31T12:09:57;101371.00;;;20.61;57.71
61337;BME280;47212;41.326;2.104;2023-03-31T12:15:22;101384.28;;;20.50;59.99
61337;BME280;47212;41.326;2.104;2023-03-31T12:25:41;101374.47;;;19.94;61.06
61337;BME280;47212;41.326;2.104;2023-03-31T12:30:49;101360.38;;;19.55;60.18
61337;BME280;47212;41.326;2.104;2023-03-31T12:41:35;101350.44;;;19.40;61.13
61337;BME280;47212;41.326;2.104;2023-03-31T12:52:10;101339.69;;;19.25;62.70
61337;BME280;47212;41.326;2.104;2023-03-31T12:57:18;101326.72;;;19.39;62.91
61337;BME280;47212;41.326;2.104;2023-03-31T13:02:23;101310.56;;;19.60;62.80
61337;BME280;47212;41.326;2.104;2023-03-31T13:12:32;101301.19;;;19.97;61.90
61337;BME280;47212;41.326;2.104;2023-03-31T13:17:36;101291.03;;;20.28;61.16
61337;BME280;47212;41.326;2.104;2023-03-31T13:22:43;101298.16;;;20.43;61.10
61337;BME280;47212;41.326;2.104;2023-03-31T13:27:49;101277.34;;;20.68;60.65
61337;BME280;47212;41.326;2.104;2023-03-31T13:33:10;101280.44;;;20.97;60.44
61337;BME280;47212;41.326;2.104;2023-03-31T13:43:54;101276.88;;;21.06;59.64
61337;BME280;47212;41.326;2.104;2023-03-31T14:05:21;101241.78;;;20.84;59.37
61337;BME280;47212;41.326;2.104;2023-03-31T14:10:35;101233.81;;;20.82;59.04
61337;BME280;47212;41.326;2.104;2023-03-31T14:15:57;101230.25;;;20.90;58.66
61337;BME280;47212;41.326;2.104;2023-03-31T14:21:22;101213.53;;;21.04;58.54
61337;BME280;47212;41.326;2.104;2023-03-31T14:38:42;101200.00;;;20.94;58.47
61337;BME280;47212;41.326;2.104;2023-03-31T14:43:50;101196.16;;;20.73;58.65
61337;BME280;47212;41.326;2.104;2023-03-31T14:48:56;101215.84;;;20.71;59.25
61337;BME280;47212;41.326;2.104;2023-03-31T14:54:17;101192.25;;;20.74;59.59
61337;BME280;47212;41.326;2.104;2023-03-31T14:59:34;101168.44;;;20.55;59.90
61337;BME280;47212;41.326;2.104;2023-03-31T15:04:41;101169.88;;;20.53;59.84
61337;BME280;47212;41.326;2.104;2023-03-31T15:09:56;101190.81;;;20.45;59.97
61337;BME280;47212;41.326;2.104;2023-03-31T15:15:03;101185.03;;;20.33;60.76
61337;BME280;47212;41.326;2.104;2023-03-31T15:20:26;101188.53;;;20.16;61.61
61337;BME280;47212;41.326;2.104;2023-03-31T15:25:41;101198.31;;;20.22;61.33
61337;BME280;47212;41.326;2.104;2023-03-31T15:30:47;101185.53;;;20.35;61.12
61337;BME280;47212;41.326;2.104;2023-03-31T15:36:20;101192.38;;;20.38;61.02
61337;BME280;47212;41.326;2.104;2023-03-31T15:41:36;101187.63;;;20.29;60.71
61337;BME280;47212;41.326;2.104;2023-03-31T15:46:49;101183.72;;;20.30;60.83
61337;BME280;47212;41.326;2.104;2023-03-31T15:52:03;101178.13;;;20.44;60.57
61337;BME280;47212;41.326;2.104;2023-03-31T15:57:20;101187.47;;;20.57;60.08
61337;BME280;47212;41.326;2.104;2023-03-31T16:02:41;101187.16;;;20.58;59.39
61337;BME280;47212;41.326;2.104;2023-03-31T16:07:47;101190.09;;;20.62;59.49
61337;BME280;47212;41.326;2.104;2023-03-31T16:13:06;101201.97;;;20.62;59.11
61337;BME280;47212;41.326;2.104;2023-03-31T16:23:48;101200.81;;;20.55;59.41
61337;BME280;47212;41.326;2.104;2023-03-31T16:29:29;101189.44;;;20.34;59.40
61337;BME280;47212;41.326;2.104;2023-03-31T16:39:55;101187.16;;;20.05;60.25
61337;BME280;47212;41.326;2.104;2023-03-31T16:45:01;101195.41;;;19.83;61.09
61337;BME280;47212;41.326;2.104;2023-03-31T16:50:17;101207.97;;;19.66;61.79
61337;BME280;47212;41.326;2.104;2023-03-31T16:55:24;101235.38;;;19.49;62.44
61337;BME280;47212;41.326;2.104;2023-03-31T17:00:29;101222.75;;;19.34;63.04
61337;BME280;47212;41.326;2.104;2023-03-31T17:05:38;101253.13;;;19.21;63.69
61337;BME280;47212;41.326;2.104;2023-03-31T17:10:55;101257.91;;;19.01;64.46
61337;BME280;47212;41.326;2.104;2023-03-31T17:16:06;101250.25;;;18.98;64.01
61337;BME280;47212;41.326;2.104;2023-03-31T17:21:31;101267.81;;;19.02;64.25
61337;BME280;47212;41.326;2.104;2023-03-31T17:26:38;101264.03;;;18.98;64.27
61337;BME280;47212;41.326;2.104;2023-03-31T17:31:41;101259.13;;;18.82;64.29
61337;BME280;47212;41.326;2.104;2023-03-31T17:36:55;101260.75;;;18.69;64.57
61337;BME280;47212;41.326;2.104;2023-03-31T17:42:13;101261.84;;;18.68;64.97
61337;BME280;47212;41.326;2.104;2023-03-31T17:47:17;101269.94;;;18.78;64.27
61337;BME280;47212;41.326;2.104;2023-03-31T17:52:22;101277.59;;;18.81;64.28
61337;BME280;47212;41.326;2.104;2023-03-31T17:57:24;101285.38;;;18.79;64.07
61337;BME280;47212;41.326;2.104;2023-03-31T18:02:26;101277.19;;;18.74;63.79
61337;BME280;47212;41.326;2.104;2023-03-31T18:07:34;101277.28;;;18.69;63.92
61337;BME280;47212;41.326;2.104;2023-03-31T18:12:37;101280.13;;;18.64;64.05
61337;BME280;47212;41.326;2.104;2023-03-31T18:17:40;101283.78;;;18.59;64.24
61337;BME280;47212;41.326;2.104;2023-03-31T18:22:44;101284.16;;;18.53;64.33
61337;BME280;47212;41.326;2.104;2023-03-31T18:27:57;101287.00;;;18.48;64.61
61337;BME280;47212;41.326;2.104;2023-03-31T18:33:01;101302.31;;;18.40;64.55
61337;BME280;47212;41.326;2.104;2023-03-31T18:38:20;101309.84;;;18.34;64.86
61337;BME280;47212;41.326;2.104;2023-03-31T18:43:50;101311.63;;;18.25;65.01
61337;BME280;47212;41.326;2.104;2023-03-31T18:48:53;101318.69;;;18.12;65.01
61337;BME280;47212;41.326;2.104;2023-03-31T18:54:05;101321.31;;;18.04;65.22
61337;BME280;47212;41.326;2.104;2023-03-31T18:59:10;101330.25;;;17.96;65.60
61337;BME280;47212;41.326;2.104;2023-03-31T19:04:22;101333.06;;;17.91;65.68
61337;BME280;47212;41.326;2.104;2023-03-31T19:09:27;101334.25;;;17.85;65.48
61337;BME280;47212;41.326;2.104;2023-03-31T19:14:35;101331.66;;;17.74;65.63
61337;BME280;47212;41.326;2.104;2023-03-31T19:19:40;101337.53;;;17.63;65.60
61337;BME280;47212;41.326;2.104;2023-03-31T19:24:54;101366.03;;;17.53;65.94
61337;BME280;47212;41.326;2.104;2023-03-31T19:30:01;101383.19;;;17.45;66.23
61337;BME280;47212;41.326;2.104;2023-03-31T19:35:25;101367.84;;;17.39;65.74
61337;BME280;47212;41.326;2.104;2023-03-31T19:40:56;101377.50;;;17.36;65.98
61337;BME280;47212;41.326;2.104;2023-03-31T19:46:12;101397.06;;;17.35;65.51
61337;BME280;47212;41.326;2.104;2023-03-31T19:51:22;101417.41;;;17.34;65.83
61337;BME280;47212;41.326;2.104;2023-03-31T19:56:35;101424.84;;;17.33;65.96
61337;BME280;47212;41.326;2.104;2023-03-31T20:01:53;101424.59;;;17.30;65.61
61337;BME280;47212;41.326;2.104;2023-03-31T20:07:03;101434.78;;;17.29;65.57
61337;BME280;47212;41.326;2.104;2023-03-31T20:12:05;101430.38;;;17.28;65.16
61337;BME280;47212;41.326;2.104;2023-03-31T20:17:07;101449.13;;;17.26;65.37
61337;BME280;47212;41.326;2.104;2023-03-31T20:22:11;101460.41;;;17.25;65.44
61337;BME280;47212;41.326;2.104;2023-03-31T20:27:13;101474.47;;;17.23;65.45
61337;BME280;47212;41.326;2.104;2023-03-31T20:32:16;101482.44;;;17.25;65.41
61337;BME280;47212;41.326;2.104;2023-03-31T20:37:22;101490.69;;;17.25;65.05
61337;BME280;47212;41.326;2.104;2023-03-31T20:42:26;101494.00;;;17.22;65.27
61337;BME280;47212;41.326;2.104;2023-03-31T20:47:30;101491.25;;;17.22;65.16
61337;BME280;47212;41.326;2.104;2023-03-31T20:52:35;101503.38;;;17.20;65.05
61337;BME280;47212;41.326;2.104;2023-03-31T20:57:37;101504.47;;;17.19;65.16
61337;BME280;47212;41.326;2.104;2023-03-31T21:02:39;101514.88;;;17.28;65.96
61337;BME280;47212;41.326;2.104;2023-03-31T21:07:42;101522.84;;;17.29;65.21
61337;BME280;47212;41.326;2.104;2023-03-31T21:12:45;101518.16;;;17.30;65.02
61337;BME280;47212;41.326;2.104;2023-03-31T21:17:51;101536.06;;;17.27;65.27
61337;BME280;47212;41.326;2.104;2023-03-31T21:22:53;101531.66;;;17.26;65.05
61337;BME280;47212;41.326;2.104;2023-03-31T21:27:57;101519.31;;;17.24;65.22
61337;BME280;47212;41.326;2.104;2023-03-31T21:33:00;101535.00;;;17.23;65.31
61337;BME280;47212;41.326;2.104;2023-03-31T21:38:02;101547.09;;;17.22;65.44
61337;BME280;47212;41.326;2.104;2023-03-31T21:43:10;101538.31;;;17.20;65.52
61337;BME280;47212;41.326;2.104;2023-03-31T21:48:15;101563.38;;;17.18;65.69
61337;BME280;47212;41.326;2.104;2023-03-31T21:53:21;101546.31;;;17.16;65.63
61337;BME280;47212;41.326;2.104;2023-03-31T21:58:26;101544.69;;;17.15;65.96
61337;BME280;47212;41.326;2.104;2023-03-31T22:03:31;101535.91;;;17.13;66.15
61337;BME280;47212;41.326;2.104;2023-03-31T22:08:36;101533.72;;;17.10;66.06
61337;BME280;47212;41.326;2.104;2023-03-31T22:13:39;101538.16;;;17.06;66.11
61337;BME280;47212;41.326;2.104;2023-03-31T22:18:42;101543.66;;;17.06;66.33
61337;BME280;47212;41.326;2.104;2023-03-31T22:23:44;101537.63;;;17.04;66.26
61337;BME280;47212;41.326;2.104;2023-03-31T22:28:47;101517.53;;;17.04;66.25
61337;BME280;47212;41.326;2.104;2023-03-31T22:33:50;101538.72;;;17.03;66.54
61337;BME280;47212;41.326;2.104;2023-03-31T22:38:53;101561.28;;;17.00;66.30
61337;BME280;47212;41.326;2.104;2023-03-31T22:43:56;101550.88;;;16.97;66.62
61337;BME280;47212;41.326;2.104;2023-03-31T22:49:00;101562.44;;;16.94;66.85
61337;BME280;47212;41.326;2.104;2023-03-31T22:54:51;101567.41;;;16.92;67.48
61337;BME280;47212;41.326;2.104;2023-03-31T23:00:09;101561.38;;;16.90;66.94
61337;BME280;47212;41.326;2.104;2023-03-31T23:05:22;101557.25;;;16.87;67.02
61337;BME280;47212;41.326;2.104;2023-03-31T23:10:25;101564.69;;;16.87;67.11
61337;BME280;47212;41.326;2.104;2023-03-31T23:15:29;101564.16;;;16.85;67.13
61337;BME280;47212;41.326;2.104;2023-03-31T23:20:40;101571.84;;;16.83;67.34
61337;BME280;47212;41.326;2.104;2023-03-31T23:25:49;101570.22;;;16.82;68.08
61337;BME280;47212;41.326;2.104;2023-03-31T23:30:56;101583.44;;;16.80;67.66
61337;BME280;47212;41.326;2.104;2023-03-31T23:36:03;101586.47;;;16.78;67.87
61337;BME280;47212;41.326;2.104;2023-03-31T23:41:25;101586.75;;;16.77;67.91
61337;BME280;47212;41.326;2.104;2023-03-31T23:47:20;101582.06;;;16.77;68.24
61337;BME280;47212;41.326;2.104;2023-03-31T23:52:23;101581.53;;;16.75;68.09
61337;BME280;47212;41.326;2.104;2023-03-31T23:57:42;101585.09;;;16.76;68.00
